North Petherton, United Kingdom
Current Conditions -  °F | °C
As of 3:50 PM on Sunday 21 Dec 2014 (Local Time) from EGDY Reporting Station
Overcast Overcast  
Wind Chill: 52°   Ceiling: 1800
Heat Index: 52°   Visibility: 6mi
Dew Point: 46°   Wind: 13mph
Humidity: 82%   Direction: 240°WSW
Pressure: 30.27"   Gusts: NA
Location:  51.09°N, 3.02°W
Report Text: EGDY 211550Z AUTO 24011KT 9999 OVC018/// 11/08 Q1025
Loading
Personal Weather Stations






























Interactive Weather Map New forecast layout! Learn more

10-Day Weather Forecast

Advertisements
Track Severe Weather on mobile